Thunder radar more information blitzortung!


Radar de pluja more information rain snow radar


Visita la nostra xarxa de llocs de meteo:

Template documentation
and downloads

And another site



No particular awareness of the weather is required.    There are no Weather-warnings

Pagina Historial Weather Underground text

Diari Resum Marc 31, 2016 Unitats:  Mètric    Imperial   Tant
« Previous Dia
SegĂźent Dia »
Diari Setmana Mensual Anual Personalitzada
  Maxima: Minima: Media:
Temperatura: -17.8 °C -12.5 °C -9 °C
Punt de rosada: -17.8 °C -18.6 °C -16.2 °C
Humitat: Humidity % 30 % 42 %
Wind Speed: 0 km/h 0 km/h 14.8 km/h
RĂ fegues de vent: 0 km/h - -
Vent:- - SW
Pression baro: 0 hPa 34029.3 hPa -
Precipitacions: 0 mm    
Historical Graphs
 
 
Dades de taula per Marc 31, 2016
Temps Temperatura Punt de rosada Pression baro Vent Wind Speed RĂ fegues de vent Humitat Rainfall Rate (Hourly)
-17.8 °C -17.8 °C 0 hPa Calm     Humidity % 0 mm
00:00 -10.7 °C -14.5 °C 34327.3 hPa NNE 6 km/h 6 km/h 63 % 0 mm
03:10 -11.9 °C -15.9 °C 34097 hPa Calm   2.6 km/h 61 % 0 mm
03:20 -11.8 °C -15.8 °C 34097 hPa East 2.6 km/h 5.1 km/h 61 % 0 mm
03:30 -11.8 °C -15.8 °C 34063.2 hPa ENE 2.6 km/h 5.1 km/h 61 % 0 mm
03:40 -11.7 °C -15.7 °C 34097 hPa NE 5.1 km/h 5.1 km/h 61 % 0 mm
03:50 -11.4 °C -15.6 °C 34097 hPa NE 2.6 km/h 5.1 km/h 60 % 0 mm
04:00 -11.2 °C -15.5 °C 34063.2 hPa NE 7.7 km/h 10.3 km/h 59 % 0 mm
04:10 -10.9 °C -15.2 °C 34063.2 hPa NE 5.1 km/h 10.3 km/h 59 % 0 mm
04:20 -10.7 °C -15.1 °C 34063.2 hPa NE 7.7 km/h 10.3 km/h 59 % 0 mm
04:30 -10.2 °C -14.7 °C 34029.3 hPa ENE 7.7 km/h 10.3 km/h 58 % 0 mm
04:40 -10 °C -14.7 °C 34063.2 hPa East 12.9 km/h 20.8 km/h 57 % 0 mm
04:50 -9.9 °C -14.6 °C 34063.2 hPa East 5.1 km/h 10.3 km/h 57 % 0 mm
05:00 -9.9 °C -14.6 °C 34063.2 hPa East 5.1 km/h 12.9 km/h 57 % 0 mm
05:10 -9.9 °C -14.6 °C 34063.2 hPa East 7.7 km/h 12.9 km/h 57 % 0 mm
05:20 -9.8 °C -14.4 °C 34063.2 hPa ESE 2.6 km/h 5.1 km/h 57 % 0 mm
05:30 -9.6 °C -14.4 °C 34063.2 hPa East 2.6 km/h 5.1 km/h 56 % 0 mm
05:40 -9.5 °C -14.3 °C 34063.2 hPa SSW 7.7 km/h 7.7 km/h 56 % 0 mm
05:50 -9.3 °C -14.1 °C 34063.2 hPa SW 5.1 km/h 10.3 km/h 56 % 0 mm
05:55 -8.9 °C -13.9 °C 34063.2 hPa WSW 5.1 km/h 5.1 km/h 55 % 0 mm
10:57 -8.9 °C -13.9 °C 34063.2 hPa WSW 6.8 km/h 8 km/h 55 % 0 mm
11:02 -8.9 °C -14.1 °C 34063.2 hPa WSW 9 km/h 9 km/h 54 % 0 mm
11:07 -8.6 °C -13.8 °C 34097 hPa West 9 km/h 9 km/h 54 % 0 mm
11:12 -8.6 °C -13.8 °C 34097 hPa SW 11.9 km/h 11.9 km/h 54 % 0 mm
11:17 -8.1 °C -13.5 °C 34097 hPa NNE 6 km/h 6 km/h 53 % 0 mm
11:22 -8 °C -13.6 °C 34063.2 hPa SW 11.9 km/h 11.9 km/h 52 % 0 mm
11:27 -8 °C -13.7 °C 34063.2 hPa SE 9 km/h 9 km/h 51 % 0 mm
11:32 -7.6 °C -13.3 °C 34063.2 hPa SW 6 km/h 6 km/h 51 % 0 mm
11:37 -7.4 °C -13.2 °C 34063.2 hPa WSW 6 km/h 6 km/h 51 % 0 mm
11:42 -7.2 °C -13.1 °C 34063.2 hPa South 6 km/h 6 km/h 50 % 0 mm
11:47 -6.9 °C -12.8 °C 34063.2 hPa SSW 6 km/h 6 km/h 50 % 0 mm
11:52 -6.9 °C -13 °C 34063.2 hPa SSE 11.9 km/h 11.9 km/h 49 % 0 mm
11:57 -6.7 °C -12.8 °C 34063.2 hPa SSW 9 km/h 9 km/h 49 % 0 mm
12:02 -6.4 °C -12.8 °C 34063.2 hPa SW 6 km/h 6 km/h 48 % 0 mm
12:07 -6.4 °C -12.8 °C 34063.2 hPa WSW 9.3 km/h 9.3 km/h 48 % 0 mm
12:12 -6.2 °C -12.7 °C 34063.2 hPa SSW 6 km/h 6 km/h 47 % 0 mm
12:17 -6.3 °C -12.8 °C 34063.2 hPa SSW 5.1 km/h 5.1 km/h 47 % 0 mm
12:22 -6.6 °C -13.2 °C 34063.2 hPa SW 11.9 km/h 11.9 km/h 46 % 0 mm
12:27 -6.4 °C -12.9 °C 34063.2 hPa SSW 14.5 km/h 14.5 km/h 47 % 0 mm
12:32 -6.5 °C -13.2 °C 34063.2 hPa SW 11.9 km/h 11.9 km/h 46 % 0 mm
12:37 -6.5 °C -13.4 °C 34063.2 hPa SW 15 km/h 15 km/h 45 % 0 mm
12:42 -6.5 °C -13.4 °C 34063.2 hPa SW 20.9 km/h 20.9 km/h 45 % 0 mm
12:47 -6.6 °C -13.4 °C 34063.2 hPa SW 17.9 km/h 17.9 km/h 45 % 0 mm
12:52 -6.5 °C -13.4 °C 34063.2 hPa South 15 km/h 15 km/h 45 % 0 mm
12:57 -6.5 °C -13.4 °C 34063.2 hPa WSW 26.9 km/h 26.9 km/h 45 % 0 mm
13:02 -6.2 °C -12.9 °C 34063.2 hPa SW 20.9 km/h 20.9 km/h 46 % 0 mm
13:07 -6.3 °C -13 °C 34063.2 hPa SW 17.9 km/h 17.9 km/h 46 % 0 mm
13:12 -6.2 °C -12.9 °C 34063.2 hPa SSW 23.8 km/h 23.8 km/h 46 % 0 mm
13:17 -6.3 °C -13 °C 34063.2 hPa SW 26.9 km/h 26.9 km/h 46 % 0 mm
13:22 -6.2 °C -12.7 °C 34029.3 hPa SW 20.3 km/h 20.3 km/h 47 % 0 mm
13:27 -6.3 °C -12.8 °C 34029.3 hPa SW 29.8 km/h 29.8 km/h 47 % 0 mm
13:32 -6.4 °C -12.7 °C 34029.3 hPa SW 19.2 km/h 19.2 km/h 48 % 0 mm
13:37 -6.4 °C -12.9 °C 34063.2 hPa WSW 32.8 km/h 32.8 km/h 47 % 0 mm
13:42 -6.4 °C -12.8 °C 34063.2 hPa WSW 32.8 km/h 32.8 km/h 48 % 0 mm
13:47 -6.2 °C -12.6 °C 34063.2 hPa SW 15.6 km/h 15.6 km/h 48 % 0 mm
13:52 -6.2 °C -12.6 °C 34063.2 hPa WNW 23.8 km/h 23.8 km/h 48 % 0 mm
13:57 -6.1 °C -12.4 °C 34063.2 hPa WSW 23.8 km/h 23.8 km/h 48 % 0 mm
14:02 -6 °C -12.4 °C 34063.2 hPa SW 11.9 km/h 11.9 km/h 48 % 0 mm
14:12 -5.6 °C -11.9 °C 34029.3 hPa WSW 17.9 km/h 17.9 km/h 48 % 0 mm
14:17 -5.4 °C -12.1 °C 34029.3 hPa WNW 20.9 km/h 20.9 km/h 47 % 0 mm
14:27 -6.4 °C -13.2 °C 34063.2 hPa WSW 26.9 km/h 26.9 km/h 45 % 0 mm
14:32 -6.6 °C -13.4 °C 34063.2 hPa NNW 26.9 km/h 26.9 km/h 45 % 0 mm
14:37 -6.7 °C -13.7 °C 34063.2 hPa WNW 32.8 km/h 32.8 km/h 44 % 0 mm
14:42 -6.5 °C -13.5 °C 34063.2 hPa WNW 20.9 km/h 20.9 km/h 44 % 0 mm
14:47 -6.6 °C -13.8 °C 34063.2 hPa West 34.1 km/h 34.1 km/h 43 % 0 mm
14:52 -6.7 °C -14.1 °C 34029.3 hPa WSW 32.8 km/h 32.8 km/h 42 % 0 mm
14:57 -6.7 °C -14.3 °C 34029.3 hPa West 29.8 km/h 29.8 km/h 41 % 0 mm
15:02 -6.7 °C -14.3 °C 34029.3 hPa WSW 26.9 km/h 26.9 km/h 41 % 0 mm
15:07 -6.7 °C -14.9 °C 34063.2 hPa West 35.7 km/h 35.7 km/h 38 % 0 mm
15:12 -6.6 °C -14.9 °C 34063.2 hPa SW 26.9 km/h 26.9 km/h 37 % 0 mm
15:17 -6.7 °C -15.1 °C 34063.2 hPa West 32.8 km/h 32.8 km/h 37 % 0 mm
15:22 -6.7 °C -15.6 °C 34097 hPa NW 26.9 km/h 26.9 km/h 35 % 0 mm
15:27 -6.6 °C -15.9 °C 34097 hPa WSW 32.8 km/h 32.8 km/h 33 % 0 mm
15:32 -6.7 °C -16 °C 34097 hPa NW 35.7 km/h 35.7 km/h 33 % 0 mm
15:37 -6.6 °C -16.2 °C 34097 hPa NW 26.9 km/h 26.9 km/h 32 % 0 mm
15:42 -6.6 °C -16.4 °C 34097 hPa SW 27.2 km/h 27.2 km/h 31 % 0 mm
15:47 -6.7 °C -16.7 °C 34097 hPa SW 32.8 km/h 32.8 km/h 30 % 0 mm
15:52 -6.6 °C -16.4 °C 34097 hPa SSW 23.8 km/h 23.8 km/h 31 % 0 mm
15:57 -6.6 °C -16.7 °C 34097 hPa SW 29.8 km/h 29.8 km/h 30 % 0 mm
16:02 -6.7 °C -16.7 °C 34097 hPa WSW 26.9 km/h 26.9 km/h 30 % 0 mm
16:07 -6.7 °C -16.5 °C 34097 hPa West 31.4 km/h 31.4 km/h 31 % 0 mm
16:12 -6.8 °C -16.6 °C 34097 hPa West 26.9 km/h 26.9 km/h 31 % 0 mm
16:17 -6.9 °C -16.7 °C 34097 hPa WSW 23.8 km/h 23.8 km/h 31 % 0 mm
16:22 -7.2 °C -16.9 °C 34097 hPa WSW 32.8 km/h 32.8 km/h 31 % 0 mm
16:27 -7.1 °C -16.8 °C 34097 hPa SW 29.8 km/h 29.8 km/h 31 % 0 mm
16:32 -6.9 °C -16.7 °C 34097 hPa WSW 26.9 km/h 26.9 km/h 31 % 0 mm
16:37 -7.1 °C -16.8 °C 34130.9 hPa West 29.8 km/h 29.8 km/h 31 % 0 mm
16:46 -7 °C -16.8 °C 34130.9 hPa WSW 11.9 km/h 17.4 km/h 31 % 0 mm
16:51 -6.9 °C -16.7 °C 34097 hPa West 31.9 km/h 31.9 km/h 31 % 0 mm
16:56 -6.9 °C -16.7 °C 34097 hPa WSW 27.7 km/h 27.7 km/h 31 % 0 mm
17:01 -7.1 °C -16.8 °C 34097 hPa WSW 32.8 km/h 32.8 km/h 31 % 0 mm
17:11 -7.1 °C -16.8 °C 34097 hPa WNW 29.8 km/h 29.8 km/h 31 % 0 mm
17:16 -7.1 °C -16.8 °C 34097 hPa NNE 20.9 km/h 20.9 km/h 31 % 0 mm
17:21 -7.1 °C -16.8 °C 34097 hPa West 35.7 km/h 35.7 km/h 31 % 0 mm
17:26 -7.2 °C -16.9 °C 34097 hPa WNW 33.6 km/h 33.6 km/h 31 % 0 mm
17:31 -7.2 °C -16.9 °C 34097 hPa NNW 35.7 km/h 35.7 km/h 31 % 0 mm
17:36 -7.2 °C -16.9 °C 34130.9 hPa West 29.8 km/h 29.8 km/h 31 % 0 mm
17:41 -7.3 °C -17.1 °C 34130.9 hPa West 38.8 km/h 38.8 km/h 31 % 0 mm
17:46 -7.6 °C -17.5 °C 34130.9 hPa West 23.8 km/h 23.8 km/h 30 % 0 mm
17:51 -7.7 °C -17.3 °C 34097 hPa West 26.4 km/h 26.4 km/h 31 % 0 mm
17:56 -7.7 °C -17.4 °C 34097 hPa ESE 20.9 km/h 20.9 km/h 31 % 0 mm
18:01 -7.7 °C -17.3 °C 34097 hPa NW 20.9 km/h 20.9 km/h 31 % 0 mm
18:06 -7.7 °C -17.4 °C 34130.9 hPa SW 26.9 km/h 26.9 km/h 31 % 0 mm
18:11 -7.7 °C -17.2 °C 34130.9 hPa WNW 19.2 km/h 19.2 km/h 32 % 0 mm
18:16 -7.8 °C -17.3 °C 34130.9 hPa NW 25.1 km/h 25.1 km/h 32 % 0 mm
18:21 -7.9 °C -17.3 °C 34130.9 hPa WSW 26.9 km/h 26.9 km/h 32 % 0 mm
18:26 -8 °C -17.2 °C 34130.9 hPa WSW 17.9 km/h 17.9 km/h 33 % 0 mm
18:31 -7.9 °C -17.3 °C 34130.9 hPa WNW 17.9 km/h 17.9 km/h 32 % 0 mm
18:36 -8 °C -17.2 °C 34097 hPa WSW 15.3 km/h 15.3 km/h 33 % 0 mm
18:41 -7.9 °C -17.1 °C 34097 hPa ESE 17.9 km/h 17.9 km/h 33 % 0 mm
18:46 -7.9 °C -17.1 °C 34097 hPa West 20.9 km/h 20.9 km/h 33 % 0 mm
18:51 -8 °C -17.2 °C 34130.9 hPa NW 17.9 km/h 17.9 km/h 33 % 0 mm
18:56 -8.1 °C -17.2 °C 34130.9 hPa West 33.2 km/h 33.2 km/h 33 % 0 mm
19:01 -8.3 °C -17.4 °C 34130.9 hPa WSW 22 km/h 22 km/h 33 % 0 mm
19:06 -8.4 °C -17.7 °C 34130.9 hPa SW 26.9 km/h 26.9 km/h 32 % 0 mm
19:10 -11.6 °C -18.3 °C 34130.9 hPa WSW 7.7 km/h 7.7 km/h 43 % 0 mm
19:11 -8.5 °C -17.8 °C 34130.9 hPa West 22.5 km/h 22.5 km/h 32 % 0 mm
19:16 -8.6 °C -18.2 °C 34130.9 hPa West 15 km/h 15 km/h 31 % 0 mm
19:20 -11.7 °C -18.4 °C 34256.2 hPa West 5.1 km/h 5.1 km/h 43 % 0 mm
19:21 -8.7 °C -18.2 °C 34130.9 hPa WSW 20.9 km/h 20.9 km/h 31 % 0 mm
19:26 -8.8 °C -18.1 °C 34130.9 hPa West 26.9 km/h 26.9 km/h 32 % 0 mm
19:30 -11.8 °C -18.5 °C 34256.2 hPa WNW 5.1 km/h 15.6 km/h 43 % 0 mm
19:31 -8.9 °C -18.2 °C 34130.9 hPa West 17.9 km/h 17.9 km/h 32 % 0 mm
19:36 -8.9 °C -18 °C 34130.9 hPa West 28.2 km/h 28.2 km/h 33 % 0 mm
19:41 -9.1 °C -18.1 °C 34130.9 hPa WSW 29.8 km/h 29.8 km/h 33 % 0 mm
19:46 -9.2 °C -18 °C 34130.9 hPa WNW 23.8 km/h 23.8 km/h 34 % 0 mm
19:51 -9.4 °C -17.9 °C 34164.7 hPa WNW 17.9 km/h 17.9 km/h 35 % 0 mm
19:56 -9.5 °C -17.6 °C 34164.7 hPa WSW 20.9 km/h 20.9 km/h 37 % 0 mm
20:00 -11.8 °C -18.6 °C 34293.4 hPa NW 5.1 km/h 5.1 km/h 43 % 0 mm
20:01 -9.6 °C -17.4 °C 34164.7 hPa West 26.9 km/h 26.9 km/h 38 % 0 mm
20:06 -9.7 °C -17.3 °C 34130.9 hPa WSW 38.8 km/h 38.8 km/h 39 % 0 mm
20:10 -11.8 °C -18.5 °C 34293.4 hPa NNE 5.1 km/h 7.7 km/h 43 % 0 mm
20:11 -9.8 °C -17.4 °C 34130.9 hPa WSW 11.9 km/h 11.9 km/h 39 % 0 mm
20:16 -9.8 °C -17.3 °C 34130.9 hPa SW 15 km/h 15 km/h 40 % 0 mm
20:20 -11.8 °C -18.3 °C 34293.4 hPa North 5.1 km/h 12.9 km/h 44 % 0 mm
20:21 -9.9 °C -17.2 °C 34130.9 hPa WSW 15 km/h 15 km/h 41 % 0 mm
20:26 -9.9 °C -17.2 °C 34130.9 hPa West 16.1 km/h 16.1 km/h 41 % 0 mm
20:30 -11.8 °C -18.3 °C 34327.3 hPa WNW 5.1 km/h 7.7 km/h 44 % 0 mm
20:31 -10 °C -17.1 °C 34130.9 hPa SW 16.6 km/h 16.6 km/h 42 % 0 mm
20:36 -10.1 °C -17.1 °C 34130.9 hPa WSW 7.6 km/h 7.6 km/h 42 % 0 mm
20:40 -11.8 °C -18.3 °C 34293.4 hPa WNW 5.1 km/h 5.1 km/h 44 % 0 mm
20:41 -10.1 °C -17.2 °C 34130.9 hPa West 15 km/h 15 km/h 42 % 0 mm
20:46 -10.2 °C -17.2 °C 34130.9 hPa WSW 4.2 km/h 4.2 km/h 42 % 0 mm
20:50 -11.8 °C -18.3 °C 34293.4 hPa NW 2.6 km/h 5.1 km/h 44 % 0 mm
20:51 -10.2 °C -17.3 °C 34164.7 hPa SW 7.6 km/h 7.6 km/h 42 % 0 mm
20:56 -10.3 °C -17.1 °C 34164.7 hPa Calm     43 % 0 mm
21:00 -11.8 °C -18.3 °C 34327.3 hPa WNW 2.6 km/h 5.1 km/h 44 % 0 mm
21:01 -10.3 °C -17.2 °C 34164.7 hPa Calm     43 % 0 mm
21:06 -10.4 °C -17.3 °C 34164.7 hPa Calm     43 % 0 mm
21:10 -11.8 °C -18.3 °C 34327.3 hPa West 2.6 km/h 7.7 km/h 44 % 0 mm
21:11 -10.5 °C -17.3 °C 34164.7 hPa NE 6 km/h 6 km/h 43 % 0 mm
21:16 -10.6 °C -17.4 °C 34164.7 hPa NE 3.1 km/h   43 % 0 mm
21:20 -11.8 °C -18.2 °C 34327.3 hPa Calm   5.1 km/h 45 % 0 mm
21:21 -10.6 °C -17.4 °C 34198.6 hPa Calm     43 % 0 mm
21:26 -10.7 °C -17.5 °C 34198.6 hPa WNW 4.2 km/h   43 % 0 mm
21:30 -11.8 °C -18.2 °C 34327.3 hPa WNW 2.6 km/h 7.7 km/h 45 % 0 mm
21:31 -10.7 °C -17.5 °C 34198.6 hPa WSW 6 km/h 6 km/h 43 % 0 mm
21:36 -10.7 °C -17.5 °C 34198.6 hPa WSW 6 km/h 6.3 km/h 43 % 0 mm
21:40 -11.8 °C -18.2 °C 34327.3 hPa NE 2.6 km/h 7.7 km/h 45 % 0 mm
21:41 -10.7 °C -17.3 °C 34198.6 hPa WSW 6 km/h 6 km/h 44 % 0 mm
21:46 -10.8 °C -17.4 °C 34198.6 hPa WNW 3.7 km/h   44 % 0 mm
21:50 -11.8 °C -18.2 °C 34327.3 hPa NNW 2.6 km/h 5.1 km/h 45 % 0 mm
21:51 -10.8 °C -17.4 °C 34198.6 hPa SSW 6 km/h 6 km/h 44 % 0 mm
21:56 -10.9 °C -17.6 °C 34198.6 hPa WSW 8.5 km/h 8.5 km/h 44 % 0 mm
22:00 -11.8 °C -18.2 °C 34327.3 hPa Calm   7.7 km/h 45 % 0 mm
22:01 -10.9 °C -17.4 °C 34198.6 hPa West 6 km/h 6 km/h 45 % 0 mm
22:10 -11.9 °C -18.2 °C 34327.3 hPa NW 5.1 km/h 7.7 km/h 45 % 0 mm
22:11 -10.9 °C -17.4 °C 34198.6 hPa West 3.1 km/h   45 % 0 mm
22:16 -10.9 °C -17.4 °C 34198.6 hPa WSW 6 km/h 6 km/h 45 % 0 mm
22:20 -11.9 °C -18.2 °C 34327.3 hPa NW 2.6 km/h 7.7 km/h 45 % 0 mm
22:26 -10.9 °C -17.6 °C 34198.6 hPa West 9.3 km/h 9.3 km/h 44 % 0 mm
22:30 -11.9 °C -18.1 °C 34327.3 hPa NNW 2.6 km/h 5.1 km/h 46 % 0 mm
22:32 -10.9 °C -17.6 °C 34198.6 hPa WSW 6 km/h   44 % 0 mm
22:37 -10.9 °C -17.6 °C 34222.3 hPa NNW 11.9 km/h 11.9 km/h 44 % 0 mm
22:40 -12 °C -18.2 °C 34293.4 hPa NW 2.6 km/h 10.3 km/h 46 % 0 mm
22:42 -10.9 °C -17.6 °C 34222.3 hPa West 6 km/h 6 km/h 44 % 0 mm
22:47 -11 °C -17.6 °C 34222.3 hPa SW 18.3 km/h 18.3 km/h 44 % 0 mm
22:50 -12 °C -18.2 °C 34293.4 hPa North 7.7 km/h 10.3 km/h 46 % 0 mm
22:52 -11 °C -17.6 °C 34256.2 hPa SW 9 km/h 9 km/h 44 % 0 mm
22:57 -11.1 °C -17.7 °C 34256.2 hPa West 9 km/h 9 km/h 44 % 0 mm
23:00 -12.1 °C -18.3 °C 34327.3 hPa ENE 5.1 km/h 7.7 km/h 46 % 0 mm
23:02 -11.1 °C -17.8 °C 34256.2 hPa WSW 23.8 km/h 23.8 km/h 43 % 0 mm
23:07 -11.1 °C -17.9 °C 34256.2 hPa SW 11.9 km/h 11.9 km/h 43 % 0 mm
23:10 -12.1 °C -18.3 °C 34327.3 hPa NNE 5.1 km/h 10.3 km/h 46 % 0 mm
23:12 -11.2 °C -18 °C 34256.2 hPa SW 9 km/h 9 km/h 43 % 0 mm
23:17 -11.3 °C -18.1 °C 34256.2 hPa WNW 6 km/h 6 km/h 43 % 0 mm
23:20 -12.2 °C -18.4 °C 34327.3 hPa NNW 2.6 km/h 7.7 km/h 46 % 0 mm
23:22 -11.4 °C -18.2 °C 34256.2 hPa West 6 km/h 6 km/h 43 % 0 mm
23:27 -11.4 °C -18.2 °C 34256.2 hPa NE 3.1 km/h   43 % 0 mm
23:30 -12.2 °C -18.2 °C 34327.3 hPa Calm   5.1 km/h 47 % 0 mm
23:32 -11.4 °C -18.2 °C 34256.2 hPa West 3.1 km/h 3.1 km/h 43 % 0 mm
23:37 -11.5 °C -18.2 °C 34256.2 hPa WSW 3.7 km/h 3.7 km/h 43 % 0 mm
23:40 -12.3 °C -18.2 °C 34327.3 hPa North 5.1 km/h 10.3 km/h 48 % 0 mm
23:42 -11.5 °C -18.2 °C 34256.2 hPa WSW 6 km/h 6 km/h 43 % 0 mm
23:47 -11.6 °C -18.3 °C 34256.2 hPa WSW 6.3 km/h 6.3 km/h 43 % 0 mm
23:50 -12.5 °C -18 °C 34327.3 hPa NNE 2.6 km/h 5.1 km/h 50 % 0 mm
23:52 -11.6 °C -18.3 °C 34256.2 hPa SW 9 km/h 9 km/h 43 % 0 mm
23:57 -11.6 °C -18.3 °C 34256.2 hPa NNE 11.9 km/h 11.9 km/h 43 % 0 mm
Meteo Sesrovires
Elogis d' Weather Underground - 3.5 mb

Guio original per  Jim McMurry - jmcmurry@mwt.net Adaptat per a la plantilla per  Wim van der Kuil - Leuven-Template.eu

Trobareu la nostra informacio del temps tambe a:

Weather Underground

AWEKAS